sensor_id;sensor_type;location;lat;lon;timestamp;P1;P2;P0
74333;PMS5003;62753;40.394;-80.022;2023-01-15T00:02:02;5;5;
74333;PMS5003;62753;40.394;-80.022;2023-01-15T00:04:28;5;5;
74333;PMS5003;62753;40.394;-80.022;2023-01-15T00:06:54;3;3;
74333;PMS5003;62753;40.394;-80.022;2023-01-15T00:09:19;3;3;
74333;PMS5003;62753;40.394;-80.022;2023-01-15T00:11:45;3;3;
74333;PMS5003;62753;40.394;-80.022;2023-01-15T00:14:11;4;3;
74333;PMS5003;62753;40.394;-80.022;2023-01-15T00:16:37;3;3;
74333;PMS5003;62753;40.394;-80.022;2023-01-15T00:19:02;2;2;
74333;PMS5003;62753;40.394;-80.022;2023-01-15T00:21:28;5;5;
74333;PMS5003;62753;40.394;-80.022;2023-01-15T00:23:54;4;4;
74333;PMS5003;62753;40.394;-80.022;2023-01-15T00:26:20;5;3;
74333;PMS5003;62753;40.394;-80.022;2023-01-15T00:28:47;5;5;
74333;PMS5003;62753;40.394;-80.022;2023-01-15T00:31:12;7;6;
74333;PMS5003;62753;40.394;-80.022;2023-01-15T00:33:37;5;5;
74333;PMS5003;62753;40.394;-80.022;2023-01-15T00:36:02;5;3;
74333;PMS5003;62753;40.394;-80.022;2023-01-15T00:38:28;3;3;
74333;PMS5003;62753;40.394;-80.022;2023-01-15T00:40:54;5;5;
74333;PMS5003;62753;40.394;-80.022;2023-01-15T00:43:19;5;5;
74333;PMS5003;62753;40.394;-80.022;2023-01-15T00:45:45;7;6;
74333;PMS5003;62753;40.394;-80.022;2023-01-15T00:48:11;5;5;
74333;PMS5003;62753;40.394;-80.022;2023-01-15T00:50:37;3;3;
74333;PMS5003;62753;40.394;-80.022;2023-01-15T00:53:02;6;6;
74333;PMS5003;62753;40.394;-80.022;2023-01-15T00:55:28;5;5;
74333;PMS5003;62753;40.394;-80.022;2023-01-15T00:57:54;8;6;
74333;PMS5003;62753;40.394;-80.022;2023-01-15T01:00:19;7;6;
74333;PMS5003;62753;40.394;-80.022;2023-01-15T01:02:45;6;6;
74333;PMS5003;62753;40.394;-80.022;2023-01-15T01:05:11;6;6;
74333;PMS5003;62753;40.394;-80.022;2023-01-15T01:07:36;7;6;
74333;PMS5003;62753;40.394;-80.022;2023-01-15T01:10:02;6;5;
74333;PMS5003;62753;40.394;-80.022;2023-01-15T01:12:28;8;6;
74333;PMS5003;62753;40.394;-80.022;2023-01-15T01:14:54;7;5;
74333;PMS5003;62753;40.394;-80.022;2023-01-15T01:17:19;7;6;
74333;PMS5003;62753;40.394;-80.022;2023-01-15T01:19:45;6;5;
74333;PMS5003;62753;40.394;-80.022;2023-01-15T01:22:11;6;6;
74333;PMS5003;62753;40.394;-80.022;2023-01-15T01:24:36;6;5;
74333;PMS5003;62753;40.394;-80.022;2023-01-15T01:27:02;7;6;
74333;PMS5003;62753;40.394;-80.022;2023-01-15T01:29:28;8;6;
74333;PMS5003;62753;40.394;-80.022;2023-01-15T01:31:54;6;6;
74333;PMS5003;62753;40.394;-80.022;2023-01-15T01:34:19;6;5;
74333;PMS5003;62753;40.394;-80.022;2023-01-15T01:36:45;10;7;
74333;PMS5003;62753;40.394;-80.022;2023-01-15T01:39:12;7;7;
74333;PMS5003;62753;40.394;-80.022;2023-01-15T01:41:36;7;7;
74333;PMS5003;62753;40.394;-80.022;2023-01-15T01:44:03;5;5;
74333;PMS5003;62753;40.394;-80.022;2023-01-15T01:46:29;7;7;
74333;PMS5003;62753;40.394;-80.022;2023-01-15T01:48:54;7;7;
74333;PMS5003;62753;40.394;-80.022;2023-01-15T01:51:20;10;7;
74333;PMS5003;62753;40.394;-80.022;2023-01-15T01:53:45;8;7;
74333;PMS5003;62753;40.394;-80.022;2023-01-15T01:56:11;6;6;
74333;PMS5003;62753;40.394;-80.022;2023-01-15T01:58:37;7;5;
74333;PMS5003;62753;40.394;-80.022;2023-01-15T02:01:02;8;7;
74333;PMS5003;62753;40.394;-80.022;2023-01-15T02:03:29;6;6;
74333;PMS5003;62753;40.394;-80.022;2023-01-15T02:05:55;6;5;
74333;PMS5003;62753;40.394;-80.022;2023-01-15T02:08:20;6;6;
74333;PMS5003;62753;40.394;-80.022;2023-01-15T02:10:46;3;3;
74333;PMS5003;62753;40.394;-80.022;2023-01-15T02:13:13;7;6;
74333;PMS5003;62753;40.394;-80.022;2023-01-15T02:15:38;6;6;
74333;PMS5003;62753;40.394;-80.022;2023-01-15T02:18:05;5;5;
74333;PMS5003;62753;40.394;-80.022;2023-01-15T02:20:29;5;3;
74333;PMS5003;62753;40.394;-80.022;2023-01-15T02:22:59;5;5;
74333;PMS5003;62753;40.394;-80.022;2023-01-15T02:25:21;5;5;
74333;PMS5003;62753;40.394;-80.022;2023-01-15T02:27:46;6;6;
74333;PMS5003;62753;40.394;-80.022;2023-01-15T02:30:12;5;5;
74333;PMS5003;62753;40.394;-80.022;2023-01-15T02:32:37;6;5;
74333;PMS5003;62753;40.394;-80.022;2023-01-15T02:35:04;5;5;
74333;PMS5003;62753;40.394;-80.022;2023-01-15T02:37:29;5;5;
74333;PMS5003;62753;40.394;-80.022;2023-01-15T02:39:54;5;5;
74333;PMS5003;62753;40.394;-80.022;2023-01-15T02:42:20;5;5;
74333;PMS5003;62753;40.394;-80.022;2023-01-15T02:44:46;5;5;
74333;PMS5003;62753;40.394;-80.022;2023-01-15T02:47:11;6;5;
74333;PMS5003;62753;40.394;-80.022;2023-01-15T02:49:37;7;7;
74333;PMS5003;62753;40.394;-80.022;2023-01-15T02:52:04;8;6;
74333;PMS5003;62753;40.394;-80.022;2023-01-15T02:54:29;5;5;
74333;PMS5003;62753;40.394;-80.022;2023-01-15T02:56:54;6;5;
74333;PMS5003;62753;40.394;-80.022;2023-01-15T02:59:21;6;5;
74333;PMS5003;62753;40.394;-80.022;2023-01-15T03:01:47;5;5;
74333;PMS5003;62753;40.394;-80.022;2023-01-15T03:04:13;7;6;
74333;PMS5003;62753;40.394;-80.022;2023-01-15T03:06:38;2;2;
74333;PMS5003;62753;40.394;-80.022;2023-01-15T03:09:03;6;5;
74333;PMS5003;62753;40.394;-80.022;2023-01-15T03:11:29;8;7;
74333;PMS5003;62753;40.394;-80.022;2023-01-15T03:13:56;7;6;
74333;PMS5003;62753;40.394;-80.022;2023-01-15T03:16:21;7;6;
74333;PMS5003;62753;40.394;-80.022;2023-01-15T03:18:47;5;3;
74333;PMS5003;62753;40.394;-80.022;2023-01-15T03:21:12;8;6;
74333;PMS5003;62753;40.394;-80.022;2023-01-15T03:23:38;7;6;
74333;PMS5003;62753;40.394;-80.022;2023-01-15T03:26:03;6;3;
74333;PMS5003;62753;40.394;-80.022;2023-01-15T03:28:30;5;5;
74333;PMS5003;62753;40.394;-80.022;2023-01-15T03:30:54;7;7;
74333;PMS5003;62753;40.394;-80.022;2023-01-15T03:33:20;8;7;
74333;PMS5003;62753;40.394;-80.022;2023-01-15T03:35:48;5;5;
74333;PMS5003;62753;40.394;-80.022;2023-01-15T03:38:12;5;5;
74333;PMS5003;62753;40.394;-80.022;2023-01-15T03:40:38;6;5;
74333;PMS5003;62753;40.394;-80.022;2023-01-15T03:43:04;6;5;
74333;PMS5003;62753;40.394;-80.022;2023-01-15T03:45:30;7;7;
74333;PMS5003;62753;40.394;-80.022;2023-01-15T03:47:56;8;7;
74333;PMS5003;62753;40.394;-80.022;2023-01-15T03:50:22;5;5;
74333;PMS5003;62753;40.394;-80.022;2023-01-15T03:52:47;6;6;
74333;PMS5003;62753;40.394;-80.022;2023-01-15T03:55:13;7;7;
74333;PMS5003;62753;40.394;-80.022;2023-01-15T03:57:38;9;7;
74333;PMS5003;62753;40.394;-80.022;2023-01-15T04:00:06;9;7;
74333;PMS5003;62753;40.394;-80.022;2023-01-15T04:02:29;5;5;
74333;PMS5003;62753;40.394;-80.022;2023-01-15T04:04:54;9;6;
74333;PMS5003;62753;40.394;-80.022;2023-01-15T04:07:20;7;6;
74333;PMS5003;62753;40.394;-80.022;2023-01-15T04:09:46;7;7;
74333;PMS5003;62753;40.394;-80.022;2023-01-15T04:12:12;10;7;
74333;PMS5003;62753;40.394;-80.022;2023-01-15T04:14:37;6;6;
74333;PMS5003;62753;40.394;-80.022;2023-01-15T04:17:03;6;6;
74333;PMS5003;62753;40.394;-80.022;2023-01-15T04:19:29;10;6;
74333;PMS5003;62753;40.394;-80.022;2023-01-15T04:21:55;9;7;
74333;PMS5003;62753;40.394;-80.022;2023-01-15T04:24:20;7;5;
74333;PMS5003;62753;40.394;-80.022;2023-01-15T04:26:45;6;6;
74333;PMS5003;62753;40.394;-80.022;2023-01-15T04:29:11;7;7;
74333;PMS5003;62753;40.394;-80.022;2023-01-15T04:31:37;7;7;
74333;PMS5003;62753;40.394;-80.022;2023-01-15T04:34:03;6;6;
74333;PMS5003;62753;40.394;-80.022;2023-01-15T04:36:29;10;7;
74333;PMS5003;62753;40.394;-80.022;2023-01-15T04:38:54;9;7;
74333;PMS5003;62753;40.394;-80.022;2023-01-15T04:41:20;10;9;
74333;PMS5003;62753;40.394;-80.022;2023-01-15T04:43:46;8;7;
74333;PMS5003;62753;40.394;-80.022;2023-01-15T04:46:11;8;7;
74333;PMS5003;62753;40.394;-80.022;2023-01-15T04:48:37;12;9;
74333;PMS5003;62753;40.394;-80.022;2023-01-15T04:51:03;12;9;
74333;PMS5003;62753;40.394;-80.022;2023-01-15T04:53:29;8;7;
74333;PMS5003;62753;40.394;-80.022;2023-01-15T04:55:58;8;6;
74333;PMS5003;62753;40.394;-80.022;2023-01-15T04:58:20;11;9;
74333;PMS5003;62753;40.394;-80.022;2023-01-15T05:00:45;10;10;
74333;PMS5003;62753;40.394;-80.022;2023-01-15T05:03:11;8;8;
74333;PMS5003;62753;40.394;-80.022;2023-01-15T05:05:37;10;8;
74333;PMS5003;62753;40.394;-80.022;2023-01-15T05:08:03;12;10;
74333;PMS5003;62753;40.394;-80.022;2023-01-15T05:10:29;9;9;
74333;PMS5003;62753;40.394;-80.022;2023-01-15T05:12:54;8;7;
74333;PMS5003;62753;40.394;-80.022;2023-01-15T05:15:20;8;7;
74333;PMS5003;62753;40.394;-80.022;2023-01-15T05:17:45;11;10;
74333;PMS5003;62753;40.394;-80.022;2023-01-15T05:20:11;9;9;
74333;PMS5003;62753;40.394;-80.022;2023-01-15T05:22:37;7;7;
74333;PMS5003;62753;40.394;-80.022;2023-01-15T05:25:03;8;7;
74333;PMS5003;62753;40.394;-80.022;2023-01-15T05:27:29;12;10;
74333;PMS5003;62753;40.394;-80.022;2023-01-15T05:29:54;7;7;
74333;PMS5003;62753;40.394;-80.022;2023-01-15T05:32:20;8;7;
74333;PMS5003;62753;40.394;-80.022;2023-01-15T05:34:46;7;7;
74333;PMS5003;62753;40.394;-80.022;2023-01-15T05:37:11;11;10;
74333;PMS5003;62753;40.394;-80.022;2023-01-15T05:39:37;12;10;
74333;PMS5003;62753;40.394;-80.022;2023-01-15T05:42:03;7;7;
74333;PMS5003;62753;40.394;-80.022;2023-01-15T05:44:29;14;11;
74333;PMS5003;62753;40.394;-80.022;2023-01-15T05:46:55;8;7;
74333;PMS5003;62753;40.394;-80.022;2023-01-15T05:49:21;6;6;
74333;PMS5003;62753;40.394;-80.022;2023-01-15T05:51:46;7;7;
74333;PMS5003;62753;40.394;-80.022;2023-01-15T05:54:12;10;7;
74333;PMS5003;62753;40.394;-80.022;2023-01-15T05:56:37;12;11;
74333;PMS5003;62753;40.394;-80.022;2023-01-15T05:59:03;7;6;
74333;PMS5003;62753;40.394;-80.022;2023-01-15T06:01:29;10;8;
74333;PMS5003;62753;40.394;-80.022;2023-01-15T06:03:56;7;7;
74333;PMS5003;62753;40.394;-80.022;2023-01-15T06:06:20;8;7;
74333;PMS5003;62753;40.394;-80.022;2023-01-15T06:08:46;8;7;
74333;PMS5003;62753;40.394;-80.022;2023-01-15T06:11:12;8;7;
74333;PMS5003;62753;40.394;-80.022;2023-01-15T06:13:38;7;7;
74333;PMS5003;62753;40.394;-80.022;2023-01-15T06:16:03;7;7;
74333;PMS5003;62753;40.394;-80.022;2023-01-15T06:18:29;10;6;
74333;PMS5003;62753;40.394;-80.022;2023-01-15T06:20:55;12;11;
74333;PMS5003;62753;40.394;-80.022;2023-01-15T06:23:20;7;7;
74333;PMS5003;62753;40.394;-80.022;2023-01-15T06:25:46;10;7;
74333;PMS5003;62753;40.394;-80.022;2023-01-15T06:28:12;11;11;
74333;PMS5003;62753;40.394;-80.022;2023-01-15T06:30:38;11;10;
74333;PMS5003;62753;40.394;-80.022;2023-01-15T06:33:04;8;7;
74333;PMS5003;62753;40.394;-80.022;2023-01-15T06:35:29;8;8;
74333;PMS5003;62753;40.394;-80.022;2023-01-15T06:37:55;8;8;
74333;PMS5003;62753;40.394;-80.022;2023-01-15T06:40:21;8;7;
74333;PMS5003;62753;40.394;-80.022;2023-01-15T06:42:46;7;6;
74333;PMS5003;62753;40.394;-80.022;2023-01-15T06:45:12;8;7;
74333;PMS5003;62753;40.394;-80.022;2023-01-15T06:47:37;12;8;
74333;PMS5003;62753;40.394;-80.022;2023-01-15T06:50:02;8;7;
74333;PMS5003;62753;40.394;-80.022;2023-01-15T06:52:28;8;8;
74333;PMS5003;62753;40.394;-80.022;2023-01-15T06:54:54;10;8;
74333;PMS5003;62753;40.394;-80.022;2023-01-15T06:57:19;8;8;
74333;PMS5003;62753;40.394;-80.022;2023-01-15T06:59:44;8;8;
74333;PMS5003;62753;40.394;-80.022;2023-01-15T07:02:10;7;7;
74333;PMS5003;62753;40.394;-80.022;2023-01-15T07:04:36;8;8;
74333;PMS5003;62753;40.394;-80.022;2023-01-15T07:07:02;10;8;
74333;PMS5003;62753;40.394;-80.022;2023-01-15T07:09:27;7;7;
74333;PMS5003;62753;40.394;-80.022;2023-01-15T07:11:53;10;8;
74333;PMS5003;62753;40.394;-80.022;2023-01-15T07:14:19;8;7;
74333;PMS5003;62753;40.394;-80.022;2023-01-15T07:16:44;10;7;
74333;PMS5003;62753;40.394;-80.022;2023-01-15T07:19:10;10;8;
74333;PMS5003;62753;40.394;-80.022;2023-01-15T07:21:36;8;8;
74333;PMS5003;62753;40.394;-80.022;2023-01-15T07:24:02;10;8;
74333;PMS5003;62753;40.394;-80.022;2023-01-15T07:26:27;8;8;
74333;PMS5003;62753;40.394;-80.022;2023-01-15T07:28:53;8;6;
74333;PMS5003;62753;40.394;-80.022;2023-01-15T07:31:19;8;8;
74333;PMS5003;62753;40.394;-80.022;2023-01-15T07:33:44;10;8;
74333;PMS5003;62753;40.394;-80.022;2023-01-15T07:36:09;7;7;
74333;PMS5003;62753;40.394;-80.022;2023-01-15T07:38:35;11;8;
74333;PMS5003;62753;40.394;-80.022;2023-01-15T07:41:01;10;9;
74333;PMS5003;62753;40.394;-80.022;2023-01-15T07:43:26;11;7;
74333;PMS5003;62753;40.394;-80.022;2023-01-15T07:45:52;12;11;
74333;PMS5003;62753;40.394;-80.022;2023-01-15T07:48:18;10;8;
74333;PMS5003;62753;40.394;-80.022;2023-01-15T07:50:44;11;10;
74333;PMS5003;62753;40.394;-80.022;2023-01-15T07:53:10;7;7;
74333;PMS5003;62753;40.394;-80.022;2023-01-15T07:55:35;11;10;
74333;PMS5003;62753;40.394;-80.022;2023-01-15T07:58:01;9;9;
74333;PMS5003;62753;40.394;-80.022;2023-01-15T08:00:27;14;11;
74333;PMS5003;62753;40.394;-80.022;2023-01-15T08:02:53;11;9;
74333;PMS5003;62753;40.394;-80.022;2023-01-15T08:05:18;10;10;
74333;PMS5003;62753;40.394;-80.022;2023-01-15T08:07:44;11;11;
74333;PMS5003;62753;40.394;-80.022;2023-01-15T08:10:10;12;11;
74333;PMS5003;62753;40.394;-80.022;2023-01-15T08:12:35;10;10;
74333;PMS5003;62753;40.394;-80.022;2023-01-15T08:15:01;11;10;
74333;PMS5003;62753;40.394;-80.022;2023-01-15T08:17:27;13;10;
74333;PMS5003;62753;40.394;-80.022;2023-01-15T08:19:53;16;13;
74333;PMS5003;62753;40.394;-80.022;2023-01-15T08:22:18;13;13;
74333;PMS5003;62753;40.394;-80.022;2023-01-15T08:24:44;11;10;
74333;PMS5003;62753;40.394;-80.022;2023-01-15T08:27:10;7;7;
74333;PMS5003;62753;40.394;-80.022;2023-01-15T08:29:36;14;13;
74333;PMS5003;62753;40.394;-80.022;2023-01-15T08:32:02;11;11;
74333;PMS5003;62753;40.394;-80.022;2023-01-15T08:34:27;13;11;
74333;PMS5003;62753;40.394;-80.022;2023-01-15T08:36:52;13;11;
74333;PMS5003;62753;40.394;-80.022;2023-01-15T08:39:18;12;10;
74333;PMS5003;62753;40.394;-80.022;2023-01-15T08:41:44;15;13;
74333;PMS5003;62753;40.394;-80.022;2023-01-15T08:44:09;11;10;
74333;PMS5003;62753;40.394;-80.022;2023-01-15T08:46:35;9;9;
74333;PMS5003;62753;40.394;-80.022;2023-01-15T08:49:01;14;11;
74333;PMS5003;62753;40.394;-80.022;2023-01-15T08:51:27;15;14;
74333;PMS5003;62753;40.394;-80.022;2023-01-15T08:53:52;14;11;
74333;PMS5003;62753;40.394;-80.022;2023-01-15T08:56:19;13;11;
74333;PMS5003;62753;40.394;-80.022;2023-01-15T08:58:44;11;11;
74333;PMS5003;62753;40.394;-80.022;2023-01-15T09:01:10;9;9;
74333;PMS5003;62753;40.394;-80.022;2023-01-15T09:03:35;11;11;
74333;PMS5003;62753;40.394;-80.022;2023-01-15T09:06:01;12;12;
74333;PMS5003;62753;40.394;-80.022;2023-01-15T09:08:27;16;14;
74333;PMS5003;62753;40.394;-80.022;2023-01-15T09:10:55;11;10;
74333;PMS5003;62753;40.394;-80.022;2023-01-15T09:13:19;14;10;
74333;PMS5003;62753;40.394;-80.022;2023-01-15T09:15:44;11;10;
74333;PMS5003;62753;40.394;-80.022;2023-01-15T09:18:10;14;12;
74333;PMS5003;62753;40.394;-80.022;2023-01-15T09:20:36;12;10;
74333;PMS5003;62753;40.394;-80.022;2023-01-15T09:23:01;12;11;
74333;PMS5003;62753;40.394;-80.022;2023-01-15T09:25:27;12;12;
74333;PMS5003;62753;40.394;-80.022;2023-01-15T09:27:54;15;14;
74333;PMS5003;62753;40.394;-80.022;2023-01-15T09:30:19;17;15;
74333;PMS5003;62753;40.394;-80.022;2023-01-15T09:32:44;15;12;
74333;PMS5003;62753;40.394;-80.022;2023-01-15T09:35:10;11;11;
74333;PMS5003;62753;40.394;-80.022;2023-01-15T09:37:36;12;11;
74333;PMS5003;62753;40.394;-80.022;2023-01-15T09:40:02;18;12;
74333;PMS5003;62753;40.394;-80.022;2023-01-15T09:42:30;12;11;
74333;PMS5003;62753;40.394;-80.022;2023-01-15T09:45:01;23;15;
74333;PMS5003;62753;40.394;-80.022;2023-01-15T09:47:20;11;10;
74333;PMS5003;62753;40.394;-80.022;2023-01-15T09:49:50;8;8;
74333;PMS5003;62753;40.394;-80.022;2023-01-15T09:52:12;14;11;
74333;PMS5003;62753;40.394;-80.022;2023-01-15T09:54:39;19;16;
74333;PMS5003;62753;40.394;-80.022;2023-01-15T09:57:01;15;14;
74333;PMS5003;62753;40.394;-80.022;2023-01-15T09:59:28;14;10;
74333;PMS5003;62753;40.394;-80.022;2023-01-15T10:01:52;11;11;
74333;PMS5003;62753;40.394;-80.022;2023-01-15T10:04:22;15;11;
74333;PMS5003;62753;40.394;-80.022;2023-01-15T10:06:44;14;12;
74333;PMS5003;62753;40.394;-80.022;2023-01-15T10:09:10;16;14;
74333;PMS5003;62753;40.394;-80.022;2023-01-15T10:11:37;16;12;
74333;PMS5003;62753;40.394;-80.022;2023-01-15T10:14:02;16;12;
74333;PMS5003;62753;40.394;-80.022;2023-01-15T10:16:27;15;14;
74333;PMS5003;62753;40.394;-80.022;2023-01-15T10:18:52;15;12;
74333;PMS5003;62753;40.394;-80.022;2023-01-15T10:21:21;16;15;
74333;PMS5003;62753;40.394;-80.022;2023-01-15T10:23:45;14;12;
74333;PMS5003;62753;40.394;-80.022;2023-01-15T10:26:11;16;15;
74333;PMS5003;62753;40.394;-80.022;2023-01-15T10:31:01;15;14;
74333;PMS5003;62753;40.394;-80.022;2023-01-15T10:33:34;15;14;
74333;PMS5003;62753;40.394;-80.022;2023-01-15T10:35:53;16;15;
74333;PMS5003;62753;40.394;-80.022;2023-01-15T10:38:18;18;14;
74333;PMS5003;62753;40.394;-80.022;2023-01-15T10:40:47;14;12;
74333;PMS5003;62753;40.394;-80.022;2023-01-15T10:43:10;15;12;
74333;PMS5003;62753;40.394;-80.022;2023-01-15T10:45:34;14;12;
74333;PMS5003;62753;40.394;-80.022;2023-01-15T10:48:00;20;16;
74333;PMS5003;62753;40.394;-80.022;2023-01-15T10:50:26;12;11;
74333;PMS5003;62753;40.394;-80.022;2023-01-15T10:52:55;15;12;
74333;PMS5003;62753;40.394;-80.022;2023-01-15T10:55:18;20;12;
74333;PMS5003;62753;40.394;-80.022;2023-01-15T10:57:43;11;11;
74333;PMS5003;62753;40.394;-80.022;2023-01-15T11:00:09;16;15;
74333;PMS5003;62753;40.394;-80.022;2023-01-15T11:02:34;14;12;
74333;PMS5003;62753;40.394;-80.022;2023-01-15T11:05:00;17;14;
74333;PMS5003;62753;40.394;-80.022;2023-01-15T11:07:26;19;15;
74333;PMS5003;62753;40.394;-80.022;2023-01-15T11:09:50;20;15;
74333;PMS5003;62753;40.394;-80.022;2023-01-15T11:12:19;13;11;
74333;PMS5003;62753;40.394;-80.022;2023-01-15T11:14:43;13;13;
74333;PMS5003;62753;40.394;-80.022;2023-01-15T11:17:09;12;12;
74333;PMS5003;62753;40.394;-80.022;2023-01-15T11:19:33;13;12;
74333;PMS5003;62753;40.394;-80.022;2023-01-15T11:21:58;15;12;
74333;PMS5003;62753;40.394;-80.022;2023-01-15T11:24:24;20;12;
74333;PMS5003;62753;40.394;-80.022;2023-01-15T11:26:50;12;11;
74333;PMS5003;62753;40.394;-80.022;2023-01-15T11:29:19;14;14;
74333;PMS5003;62753;40.394;-80.022;2023-01-15T11:31:41;12;10;
74333;PMS5003;62753;40.394;-80.022;2023-01-15T11:36:32;16;13;
74333;PMS5003;62753;40.394;-80.022;2023-01-15T11:38:58;21;15;
74333;PMS5003;62753;40.394;-80.022;2023-01-15T11:41:27;12;12;
74333;PMS5003;62753;40.394;-80.022;2023-01-15T11:43:53;13;11;
74333;PMS5003;62753;40.394;-80.022;2023-01-15T11:46:22;13;11;
74333;PMS5003;62753;40.394;-80.022;2023-01-15T11:48:43;17;15;
74333;PMS5003;62753;40.394;-80.022;2023-01-15T11:51:08;10;8;
74333;PMS5003;62753;40.394;-80.022;2023-01-15T11:53:33;10;10;
74333;PMS5003;62753;40.394;-80.022;2023-01-15T11:55:59;15;12;
74333;PMS5003;62753;40.394;-80.022;2023-01-15T11:58:24;14;11;
74333;PMS5003;62753;40.394;-80.022;2023-01-15T12:00:50;17;14;
74333;PMS5003;62753;40.394;-80.022;2023-01-15T12:03:16;16;14;
74333;PMS5003;62753;40.394;-80.022;2023-01-15T12:05:44;20;15;
74333;PMS5003;62753;40.394;-80.022;2023-01-15T12:08:12;13;11;
74333;PMS5003;62753;40.394;-80.022;2023-01-15T12:10:32;11;11;
74333;PMS5003;62753;40.394;-80.022;2023-01-15T12:13:00;14;14;
74333;PMS5003;62753;40.394;-80.022;2023-01-15T12:15:27;17;16;
74333;PMS5003;62753;40.394;-80.022;2023-01-15T12:17:54;15;14;
74333;PMS5003;62753;40.394;-80.022;2023-01-15T12:20:17;15;13;
74333;PMS5003;62753;40.394;-80.022;2023-01-15T12:22:46;20;17;
74333;PMS5003;62753;40.394;-80.022;2023-01-15T12:27:37;16;14;
74333;PMS5003;62753;40.394;-80.022;2023-01-15T12:29:59;17;14;
74333;PMS5003;62753;40.394;-80.022;2023-01-15T12:32:25;19;17;
74333;PMS5003;62753;40.394;-80.022;2023-01-15T12:34:50;13;13;
74333;PMS5003;62753;40.394;-80.022;2023-01-15T12:37:16;14;12;
74333;PMS5003;62753;40.394;-80.022;2023-01-15T12:39:42;17;14;
74333;PMS5003;62753;40.394;-80.022;2023-01-15T12:42:08;17;15;
74333;PMS5003;62753;40.394;-80.022;2023-01-15T12:44:34;17;16;
74333;PMS5003;62753;40.394;-80.022;2023-01-15T12:46:58;15;15;
74333;PMS5003;62753;40.394;-80.022;2023-01-15T12:49:26;17;15;
74333;PMS5003;62753;40.394;-80.022;2023-01-15T12:51:50;16;15;
74333;PMS5003;62753;40.394;-80.022;2023-01-15T12:54:16;26;19;
74333;PMS5003;62753;40.394;-80.022;2023-01-15T12:56:44;19;18;
74333;PMS5003;62753;40.394;-80.022;2023-01-15T12:59:06;34;20;
74333;PMS5003;62753;40.394;-80.022;2023-01-15T13:01:33;25;21;
74333;PMS5003;62753;40.394;-80.022;2023-01-15T13:04:01;20;19;
74333;PMS5003;62753;40.394;-80.022;2023-01-15T13:06:22;21;18;
74333;PMS5003;62753;40.394;-80.022;2023-01-15T13:08:50;18;15;
74333;PMS5003;62753;40.394;-80.022;2023-01-15T13:11:13;17;16;
74333;PMS5003;62753;40.394;-80.022;2023-01-15T13:13:39;21;18;
74333;PMS5003;62753;40.394;-80.022;2023-01-15T13:16:07;15;14;
74333;PMS5003;62753;40.394;-80.022;2023-01-15T13:18:30;18;15;
74333;PMS5003;62753;40.394;-80.022;2023-01-15T13:20:54;18;16;
74333;PMS5003;62753;40.394;-80.022;2023-01-15T13:23:27;15;14;
74333;PMS5003;62753;40.394;-80.022;2023-01-15T13:25:49;19;16;
74333;PMS5003;62753;40.394;-80.022;2023-01-15T13:28:15;17;14;
74333;PMS5003;62753;40.394;-80.022;2023-01-15T13:30:41;21;19;
74333;PMS5003;62753;40.394;-80.022;2023-01-15T13:33:05;16;15;
74333;PMS5003;62753;40.394;-80.022;2023-01-15T13:35:29;19;17;
74333;PMS5003;62753;40.394;-80.022;2023-01-15T13:37:54;17;15;
74333;PMS5003;62753;40.394;-80.022;2023-01-15T13:40:21;16;13;
74333;PMS5003;62753;40.394;-80.022;2023-01-15T13:42:45;17;17;
74333;PMS5003;62753;40.394;-80.022;2023-01-15T13:45:21;20;17;
74333;PMS5003;62753;40.394;-80.022;2023-01-15T13:47:36;14;13;
74333;PMS5003;62753;40.394;-80.022;2023-01-15T13:50:02;15;14;
74333;PMS5003;62753;40.394;-80.022;2023-01-15T13:52:27;16;15;
74333;PMS5003;62753;40.394;-80.022;2023-01-15T13:54:52;15;14;
74333;PMS5003;62753;40.394;-80.022;2023-01-15T13:57:22;17;15;
74333;PMS5003;62753;40.394;-80.022;2023-01-15T13:59:43;15;15;
74333;PMS5003;62753;40.394;-80.022;2023-01-15T14:02:17;17;12;
74333;PMS5003;62753;40.394;-80.022;2023-01-15T14:04:35;19;16;
74333;PMS5003;62753;40.394;-80.022;2023-01-15T14:07:00;18;17;
74333;PMS5003;62753;40.394;-80.022;2023-01-15T14:09:26;15;14;
74333;PMS5003;62753;40.394;-80.022;2023-01-15T14:11:58;17;16;
74333;PMS5003;62753;40.394;-80.022;2023-01-15T14:16:46;16;14;
74333;PMS5003;62753;40.394;-80.022;2023-01-15T14:19:17;14;13;
74333;PMS5003;62753;40.394;-80.022;2023-01-15T14:21:36;19;18;
74333;PMS5003;62753;40.394;-80.022;2023-01-15T14:26:26;16;14;
74333;PMS5003;62753;40.394;-80.022;2023-01-15T14:28:55;17;17;
74333;PMS5003;62753;40.394;-80.022;2023-01-15T14:31:22;24;16;
74333;PMS5003;62753;40.394;-80.022;2023-01-15T14:33:44;15;14;
74333;PMS5003;62753;40.394;-80.022;2023-01-15T14:36:08;18;15;
74333;PMS5003;62753;40.394;-80.022;2023-01-15T14:38:33;18;16;
74333;PMS5003;62753;40.394;-80.022;2023-01-15T14:40:59;20;15;
74333;PMS5003;62753;40.394;-80.022;2023-01-15T14:43:24;18;15;
74333;PMS5003;62753;40.394;-80.022;2023-01-15T14:45:49;22;18;
74333;PMS5003;62753;40.394;-80.022;2023-01-15T14:48:16;17;16;
74333;PMS5003;62753;40.394;-80.022;2023-01-15T14:50:41;18;17;
74333;PMS5003;62753;40.394;-80.022;2023-01-15T14:55:31;20;18;
74333;PMS5003;62753;40.394;-80.022;2023-01-15T14:57:59;21;15;
74333;PMS5003;62753;40.394;-80.022;2023-01-15T15:00:23;16;15;
74333;PMS5003;62753;40.394;-80.022;2023-01-15T15:02:48;17;16;
74333;PMS5003;62753;40.394;-80.022;2023-01-15T15:05:15;16;15;
74333;PMS5003;62753;40.394;-80.022;2023-01-15T15:07:40;21;17;
74333;PMS5003;62753;40.394;-80.022;2023-01-15T15:10:05;44;34;
74333;PMS5003;62753;40.394;-80.022;2023-01-15T15:12:32;38;34;
74333;PMS5003;62753;40.394;-80.022;2023-01-15T15:14:58;27;20;
74333;PMS5003;62753;40.394;-80.022;2023-01-15T15:17:22;21;19;
74333;PMS5003;62753;40.394;-80.022;2023-01-15T15:19:46;18;16;
74333;PMS5003;62753;40.394;-80.022;2023-01-15T15:22:11;27;24;
74333;PMS5003;62753;40.394;-80.022;2023-01-15T15:24:35;15;15;
74333;PMS5003;62753;40.394;-80.022;2023-01-15T15:27:13;20;17;
74333;PMS5003;62753;40.394;-80.022;2023-01-15T15:29:26;19;17;
74333;PMS5003;62753;40.394;-80.022;2023-01-15T15:31:52;21;17;
74333;PMS5003;62753;40.394;-80.022;2023-01-15T15:34:18;24;21;
74333;PMS5003;62753;40.394;-80.022;2023-01-15T15:36:43;16;15;
74333;PMS5003;62753;40.394;-80.022;2023-01-15T15:41:34;19;14;
74333;PMS5003;62753;40.394;-80.022;2023-01-15T15:43:58;21;19;
74333;PMS5003;62753;40.394;-80.022;2023-01-15T15:46:25;23;19;
74333;PMS5003;62753;40.394;-80.022;2023-01-15T15:48:50;25;22;
74333;PMS5003;62753;40.394;-80.022;2023-01-15T15:51:22;17;15;
74333;PMS5003;62753;40.394;-80.022;2023-01-15T15:53:40;18;16;
74333;PMS5003;62753;40.394;-80.022;2023-01-15T15:56:05;17;16;
74333;PMS5003;62753;40.394;-80.022;2023-01-15T15:58:31;15;15;
74333;PMS5003;62753;40.394;-80.022;2023-01-15T16:00:56;19;18;
74333;PMS5003;62753;40.394;-80.022;2023-01-15T16:03:22;18;17;
74333;PMS5003;62753;40.394;-80.022;2023-01-15T16:05:54;19;18;